Time;durP1;ratioP1;P1;durP2;ratioP2;P2;SDS_P1;SDS_P2;PMS_P1;PMS_P2;Temp;Humidity;BMP_temperature;BMP_pressure;BME280_temperature;BME280_humidity;BME280_pressure;Samples;Min_cycle;Max_cycle;Signal;HPM_P1;HPM_P2
2021/09/02 00:02:20;;;;;;;1.07;0.90;;;;;;;14.14;67.46;99873.06;5138507;27;42544;-83
2021/09/02 00:04:48;;;;;;;0.97;0.70;;;;;;;14.19;67.37;99881.66;5152157;27;40915;-84
2021/09/02 00:07:15;;;;;;;1.37;0.93;;;;;;;14.06;67.16;99863.84;5151108;27;42161;-83
2021/09/02 00:09:43;;;;;;;1.40;0.93;;;;;;;14.12;67.49;99890.09;5138120;27;41653;-83
2021/09/02 00:12:10;;;;;;;1.10;0.90;;;;;;;14.07;67.10;99892.19;5113661;27;41048;-83
2021/09/02 00:14:39;;;;;;;0.87;0.87;;;;;;;14.01;67.47;99888.94;5117376;27;39769;-85
2021/09/02 00:17:07;;;;;;;0.97;0.97;;;;;;;13.88;67.73;99860.47;5146762;27;40892;-83
2021/09/02 00:19:36;;;;;;;1.13;0.93;;;;;;;13.93;67.82;99883.22;5129894;27;41957;-83
2021/09/02 00:22:03;;;;;;;1.30;0.80;;;;;;;13.88;67.61;99877.31;5130163;27;41387;-82
2021/09/02 00:24:31;;;;;;;0.77;0.77;;;;;;;13.84;67.64;99875.78;5128871;27;39180;-83
2021/09/02 00:27:12;;;;;;;1.10;1.00;;;;;;;13.70;67.68;99864.25;5147727;27;41475;-84
2021/09/02 00:29:41;;;;;;;1.17;1.07;;;;;;;13.73;68.06;99872.88;5145161;27;43502;-84
2021/09/02 00:32:10;;;;;;;1.83;1.43;;;;;;;13.72;68.52;99881.84;5142093;27;41347;-83
2021/09/02 00:34:37;;;;;;;1.63;1.03;;;;;;;13.63;68.24;99883.22;5125757;27;39158;-83
2021/09/02 00:37:05;;;;;;;1.47;1.20;;;;;;;13.64;68.16;99884.09;5125598;27;41785;-84
2021/09/02 00:39:33;;;;;;;1.03;0.93;;;;;;;13.61;68.24;99894.91;5125948;27;41744;-83
2021/09/02 00:42:01;;;;;;;0.83;0.80;;;;;;;13.53;68.18;99889.19;5119081;27;41380;-85
2021/09/02 00:44:37;;;;;;;1.17;1.00;;;;;;;13.47;68.20;99889.56;5113371;27;39002;-82
2021/09/02 00:47:07;;;;;;;1.10;1.00;;;;;;;13.44;68.37;99876.41;5129667;27;40950;-83
2021/09/02 00:49:35;;;;;;;0.70;0.63;;;;;;;13.37;68.35;99875.91;5130398;27;43106;-83
2021/09/02 00:52:05;;;;;;;1.17;1.07;;;;;;;13.33;68.41;99882.34;5130249;27;41219;-84
2021/09/02 00:54:33;;;;;;;1.43;1.13;;;;;;;13.41;68.34;99895.22;5130146;27;40676;-84
2021/09/02 00:57:01;;;;;;;2.53;1.30;;;;;;;13.16;68.32;99864.69;5112856;27;40871;-84
2021/09/02 00:59:28;;;;;;;1.20;1.00;;;;;;;13.33;68.49;99894.81;5113517;27;41724;-85
2021/09/02 01:01:56;;;;;;;1.53;1.10;;;;;;;13.29;68.28;99892.31;5113459;27;42093;-83
2021/09/02 01:04:26;;;;;;;0.83;0.80;;;;;;;13.26;68.20;99897.81;5112776;27;39070;-83
2021/09/02 01:06:54;;;;;;;1.40;1.30;;;;;;;13.23;68.38;99892.66;5130146;27;41282;-82
2021/09/02 01:09:21;;;;;;;1.00;0.90;;;;;;;13.14;68.31;99873.66;5141709;27;42055;-84
2021/09/02 01:11:50;;;;;;;1.30;1.20;;;;;;;13.19;68.43;99888.47;5133953;27;41233;-83
2021/09/02 01:14:18;;;;;;;1.20;1.10;;;;;;;13.17;68.54;99886.84;5150415;27;40273;-83
2021/09/02 01:16:46;;;;;;;1.10;1.00;;;;;;;13.14;68.63;99890.50;5150600;27;42622;-85
2021/09/02 01:19:16;;;;;;;2.17;1.20;;;;;;;13.12;69.06;99892.38;5150283;27;42120;-83
2021/09/02 01:21:45;;;;;;;1.50;1.23;;;;;;;13.09;69.29;99881.94;5150510;27;41294;-84
2021/09/02 01:24:15;;;;;;;0.80;0.80;;;;;;;13.05;69.38;99883.03;5133642;27;38970;-84
2021/09/02 01:26:42;;;;;;;0.97;0.80;;;;;;;12.95;69.23;99869.41;5150520;27;41035;-84
2021/09/02 01:29:13;;;;;;;1.33;0.80;;;;;;;13.04;69.34;99888.44;5149879;27;43791;-84
2021/09/02 01:31:41;;;;;;;0.70;0.70;;;;;;;12.96;69.33;99870.25;5149949;27;41942;-82
2021/09/02 01:34:09;;;;;;;1.10;0.90;;;;;;;12.90;69.32;99870.59;5132999;27;39204;-84
2021/09/02 01:36:37;;;;;;;1.23;1.20;;;;;;;12.88;69.40;99873.31;5133097;27;42061;-82
2021/09/02 01:39:04;;;;;;;2.23;1.17;;;;;;;12.94;69.32;99885.44;5132995;27;42755;-83
2021/09/02 01:41:33;;;;;;;0.93;0.90;;;;;;;12.92;69.24;99885.50;5132995;27;41159;-84
2021/09/02 01:44:01;;;;;;;1.43;1.13;;;;;;;12.90;69.13;99881.22;5150121;27;39068;-84
2021/09/02 01:46:28;;;;;;;1.67;1.10;;;;;;;12.87;69.05;99881.38;5133519;27;40865;-84
2021/09/02 01:48:56;;;;;;;1.57;1.20;;;;;;;12.85;69.32;99881.50;5132467;27;42622;-83
2021/09/02 01:51:24;;;;;;;0.93;0.83;;;;;;;12.79;69.00;99878.31;5150341;27;42272;-83
2021/09/02 01:53:51;;;;;;;1.43;0.93;;;;;;;12.77;69.76;99866.88;5133277;27;39925;-83
2021/09/02 01:56:19;;;;;;;0.83;0.83;;;;;;;12.74;69.30;99875.03;5132911;27;40928;-84
2021/09/02 01:58:48;;;;;;;0.70;0.70;;;;;;;12.77;69.29;99877.53;5133095;27;43653;-85
2021/09/02 02:01:15;;;;;;;0.90;0.90;;;;;;;12.67;69.50;99863.03;5149656;27;43222;-83
2021/09/02 02:03:43;;;;;;;1.07;0.97;;;;;;;12.71;69.32;99878.72;5133374;27;38826;-86
2021/09/02 02:06:10;;;;;;;1.13;1.03;;;;;;;12.37;69.56;99834.53;5150213;27;42353;-85
2021/09/02 02:08:37;;;;;;;1.13;0.70;;;;;;;12.50;69.40;99848.84;5133202;27;41887;-83
2021/09/02 02:11:05;;;;;;;0.87;0.70;;;;;;;12.67;69.56;99876.31;5153878;27;43145;-87
2021/09/02 02:13:33;;;;;;;1.67;0.80;;;;;;;12.64;69.54;99868.50;5152946;27;38968;-83
2021/09/02 02:16:02;;;;;;;1.10;1.00;;;;;;;12.63;69.56;99864.13;5154352;27;43219;-85
2021/09/02 02:18:29;;;;;;;1.87;1.47;;;;;;;12.60;69.96;99862.53;5135687;27;41795;-85
2021/09/02 02:20:57;;;;;;;1.10;0.87;;;;;;;12.62;70.25;99873.91;5137069;27;41063;-83
2021/09/02 02:23:24;;;;;;;0.80;0.80;;;;;;;12.59;70.51;99868.78;5152882;27;40280;-84
2021/09/02 02:25:52;;;;;;;1.47;1.17;;;;;;;12.61;71.08;99863.38;5154039;27;40732;-84
2021/09/02 02:28:19;;;;;;;1.73;1.50;;;;;;;12.41;71.10;99841.41;5135449;27;41896;-86
2021/09/02 02:30:47;;;;;;;1.70;1.30;;;;;;;12.56;70.79;99872.44;5136021;27;41448;-85
2021/09/02 02:33:16;;;;;;;1.47;1.00;;;;;;;12.46;71.14;99855.31;5152858;27;40231;-84
2021/09/02 02:35:43;;;;;;;2.23;1.53;;;;;;;12.51;71.24;99858.53;5135461;27;41044;-85
2021/09/02 02:38:11;;;;;;;1.90;1.50;;;;;;;12.47;71.66;99851.69;5135180;27;41888;-83
2021/09/02 02:40:39;;;;;;;2.03;1.80;;;;;;;12.53;71.48;99864.63;5136346;27;41311;-83
2021/09/02 02:43:06;;;;;;;1.07;0.93;;;;;;;12.53;71.95;99867.28;5152713;27;40008;-82
2021/09/02 02:45:34;;;;;;;1.47;1.37;;;;;;;12.53;71.58;99877.94;5152550;27;41689;-85
2021/09/02 02:48:01;;;;;;;2.00;1.40;;;;;;;12.51;71.43;99874.50;5135299;27;42811;-86
2021/09/02 02:50:30;;;;;;;1.23;1.10;;;;;;;12.50;71.77;99877.22;5153663;27;42520;-83
2021/09/02 02:52:58;;;;;;;1.07;1.03;;;;;;;12.49;71.63;99871.06;5136383;27;39078;-82
2021/09/02 02:55:26;;;;;;;1.10;1.00;;;;;;;12.45;71.43;99869.53;5152907;27;41497;-86
2021/09/02 02:57:54;;;;;;;1.23;0.93;;;;;;;12.43;71.48;99863.44;5153520;27;42867;-83
2021/09/02 03:00:22;;;;;;;2.40;1.43;;;;;;;12.43;71.41;99862.56;5135737;27;42545;-85
2021/09/02 03:02:50;;;;;;;1.03;0.97;;;;;;;12.39;71.50;99861.88;5153417;27;40530;-85
2021/09/02 03:05:17;;;;;;;2.20;1.07;;;;;;;12.28;71.48;99840.34;5127426;27;41279;-85
2021/09/02 03:07:46;;;;;;;2.20;1.00;;;;;;;12.36;71.49;99856.75;5132341;27;43263;-82
2021/09/02 03:10:14;;;;;;;0.87;0.83;;;;;;;12.34;71.82;99849.78;5150911;27;41096;-85
2021/09/02 03:12:41;;;;;;;1.37;1.00;;;;;;;12.21;71.93;99834.50;5151150;27;40189;-86
2021/09/02 03:15:10;;;;;;;1.33;1.00;;;;;;;12.21;71.75;99845.13;5152033;27;42072;-85
2021/09/02 03:17:39;;;;;;;2.03;1.20;;;;;;;12.11;71.53;99824.47;5152263;27;43867;-82
2021/09/02 03:20:08;;;;;;;2.07;1.83;;;;;;;12.24;71.35;99860.03;5153657;27;42105;-83
2021/09/02 03:22:36;;;;;;;0.80;0.80;;;;;;;12.18;71.12;99849.75;5134696;27;39197;-84
2021/09/02 03:25:06;;;;;;;1.93;1.27;;;;;;;12.19;71.56;99862.09;5152940;27;40934;-84
2021/09/02 03:27:34;;;;;;;1.30;1.03;;;;;;;12.07;71.36;99841.50;5152273;27;42354;-84
2021/09/02 03:30:01;;;;;;;1.40;1.10;;;;;;;12.13;71.40;99857.94;5136515;27;41328;-85
2021/09/02 03:32:29;;;;;;;0.90;0.90;;;;;;;12.08;71.31;99853.84;5135626;27;40170;-86
2021/09/02 03:34:57;;;;;;;1.60;0.70;;;;;;;12.07;71.08;99852.97;5153161;27;42751;-86
2021/09/02 03:37:24;;;;;;;1.17;1.07;;;;;;;12.06;71.16;99866.31;5151567;27;43505;-84
2021/09/02 03:39:52;;;;;;;1.47;0.80;;;;;;;11.93;71.24;99846.66;5151720;27;42396;-82
2021/09/02 03:42:21;;;;;;;1.23;1.10;;;;;;;11.98;71.60;99855.25;5135269;27;38668;-86
2021/09/02 03:44:48;;;;;;;1.10;1.00;;;;;;;11.99;71.66;99867.59;5135017;27;40817;-82
2021/09/02 03:47:16;;;;;;;1.13;0.90;;;;;;;11.96;71.35;99867.75;5151934;27;43140;-86
2021/09/02 03:49:43;;;;;;;1.10;1.00;;;;;;;11.92;71.56;99869.69;5151683;27;41173;-83
2021/09/02 03:52:11;;;;;;;2.07;0.83;;;;;;;11.92;71.29;99867.03;5151426;27;40099;-82
2021/09/02 03:54:38;;;;;;;1.57;1.10;;;;;;;11.90;71.39;99871.56;5118425;27;40672;-84
2021/09/02 03:57:06;;;;;;;1.23;1.13;;;;;;;11.86;71.23;99870.88;5134420;27;42015;-82
2021/09/02 03:59:35;;;;;;;1.33;1.13;;;;;;;11.84;71.44;99871.91;5151790;27;43272;-86
2021/09/02 04:02:03;;;;;;;2.37;1.40;;;;;;;11.73;71.28;99852.97;5135753;27;39678;-82
2021/09/02 04:04:30;;;;;;;1.43;1.00;;;;;;;11.79;71.40;99869.47;5134086;27;40846;-86
2021/09/02 04:06:58;;;;;;;0.77;0.77;;;;;;;11.69;71.16;99860.22;5151614;27;41717;-84
2021/09/02 04:09:25;;;;;;;2.40;1.13;;;;;;;11.72;71.56;99862.75;5134066;27;42076;-87
2021/09/02 04:11:53;;;;;;;0.63;0.57;;;;;;;11.75;71.06;99875.84;5152618;27;40023;-82
2021/09/02 04:14:21;;;;;;;1.23;0.90;;;;;;;11.73;71.74;99875.06;5133846;27;42026;-83
2021/09/02 04:16:50;;;;;;;2.00;1.37;;;;;;;11.71;72.11;99876.94;5134849;27;42185;-86
2021/09/02 04:19:17;;;;;;;0.77;0.77;;;;;;;11.69;71.63;99868.19;5133862;27;40955;-83
2021/09/02 04:21:45;;;;;;;1.50;0.80;;;;;;;11.68;71.97;99874.44;5150460;27;40131;-82
2021/09/02 04:24:12;;;;;;;0.60;0.60;;;;;;;11.58;71.56;99859.94;5151535;27;40929;-84
2021/09/02 04:26:39;;;;;;;1.13;0.90;;;;;;;11.46;71.87;99839.31;5151111;27;43092;-83
2021/09/02 04:29:07;;;;;;;1.03;0.93;;;;;;;11.64;71.76;99870.22;5132165;27;41064;-83
2021/09/02 04:31:34;;;;;;;0.93;0.93;;;;;;;11.39;71.87;99827.28;5129731;27;40944;-86
2021/09/02 04:34:04;;;;;;;0.90;0.70;;;;;;;11.63;71.94;99873.78;5130573;27;41662;-85
2021/09/02 04:36:31;;;;;;;1.90;0.93;;;;;;;11.53;71.79;99860.13;5113672;27;41693;-83
2021/09/02 04:38:59;;;;;;;0.50;0.50;;;;;;;11.63;71.72;99872.94;5130151;27;42105;-83
2021/09/02 04:41:26;;;;;;;2.10;1.07;;;;;;;11.64;72.05;99877.31;5130830;27;38974;-86
2021/09/02 04:43:54;;;;;;;1.70;0.87;;;;;;;11.62;71.94;99869.41;5113426;27;41747;-82
2021/09/02 04:46:22;;;;;;;1.70;1.03;;;;;;;11.64;72.03;99875.53;5130019;27;43824;-84
2021/09/02 04:48:49;;;;;;;0.77;0.73;;;;;;;11.63;71.92;99872.94;5130296;27;42250;-86
2021/09/02 04:51:18;;;;;;;1.00;0.73;;;;;;;11.67;72.22;99885.97;5131956;27;40023;-82
2021/09/02 04:53:46;;;;;;;1.53;1.23;;;;;;;11.69;71.85;99886.78;5143859;27;40941;-84
2021/09/02 04:56:13;;;;;;;1.50;1.10;;;;;;;11.72;72.49;99881.31;5151208;27;43665;-85
2021/09/02 04:58:41;;;;;;;1.20;1.03;;;;;;;11.74;72.60;99882.09;5134092;27;41466;-83
2021/09/02 05:01:08;;;;;;;1.80;1.07;;;;;;;11.76;72.34;99882.88;5133525;27;40269;-85
2021/09/02 05:03:36;;;;;;;1.27;0.73;;;;;;;11.84;72.68;99887.81;5151545;27;41824;-86
2021/09/02 05:06:04;;;;;;;1.03;0.90;;;;;;;11.88;72.71;99887.56;5133677;27;42142;-85
2021/09/02 05:08:33;;;;;;;1.83;1.37;;;;;;;11.92;72.72;99890.06;5133532;27;42172;-89
2021/09/02 05:11:01;;;;;;;1.93;1.03;;;;;;;11.98;73.29;99889.78;5151829;27;39754;-89
2021/09/02 05:13:28;;;;;;;1.23;1.17;;;;;;;12.04;73.33;99886.78;5132380;27;42092;-85
2021/09/02 05:15:56;;;;;;;1.93;1.40;;;;;;;11.78;73.14;99841.22;5133655;27;41905;-85
2021/09/02 05:18:23;;;;;;;0.80;0.80;;;;;;;12.15;72.97;99895.91;5133968;27;42086;-86
2021/09/02 05:20:52;;;;;;;0.80;0.80;;;;;;;12.13;72.85;99883.63;5133755;27;38906;-85
2021/09/02 05:23:20;;;;;;;1.43;1.00;;;;;;;12.17;72.64;99874.59;5132121;27;41872;-86
2021/09/02 05:25:49;;;;;;;1.27;1.17;;;;;;;12.33;72.69;99896.75;5133620;27;41820;-86
2021/09/02 05:28:16;;;;;;;1.40;1.10;;;;;;;12.41;72.39;99894.53;5133408;27;41593;-86
2021/09/02 05:30:44;;;;;;;1.60;1.50;;;;;;;12.40;72.07;99876.88;5133188;27;39075;-86
2021/09/02 05:33:11;;;;;;;0.97;0.97;;;;;;;12.49;72.16;99881.69;5132555;27;40789;-85
2021/09/02 05:35:39;;;;;;;1.20;1.10;;;;;;;12.68;71.93;99901.97;5133732;27;41881;-86
2021/09/02 05:38:10;;;;;;;0.80;0.77;;;;;;;12.72;71.79;99898.19;5131720;27;41151;-86
2021/09/02 05:40:38;;;;;;;1.40;1.27;;;;;;;12.81;71.87;99882.59;5132566;27;40227;-86
2021/09/02 05:43:07;;;;;;;1.57;1.47;;;;;;;12.95;71.54;99900.44;5131310;27;40880;-85
2021/09/02 05:45:35;;;;;;;1.17;1.10;;;;;;;12.70;71.77;99850.44;5137003;27;41691;-86
2021/09/02 05:48:04;;;;;;;1.53;0.87;;;;;;;13.21;71.12;99909.66;5136603;27;41224;-86
2021/09/02 05:50:31;;;;;;;1.37;1.13;;;;;;;13.37;70.68;99891.00;5154199;27;39715;-85
2021/09/02 05:52:59;;;;;;;1.20;1.10;;;;;;;13.50;70.63;99897.34;5134893;27;40800;-86
2021/09/02 05:55:26;;;;;;;1.20;0.87;;;;;;;13.62;71.08;99902.81;5137001;27;42151;-86
2021/09/02 05:57:54;;;;;;;2.13;1.23;;;;;;;13.60;71.12;99891.38;5137211;27;41094;-86
2021/09/02 06:00:23;;;;;;;1.97;1.50;;;;;;;13.68;71.28;99893.63;5136831;27;39083;-86
2021/09/02 06:02:51;;;;;;;2.17;1.77;;;;;;;13.82;71.25;99891.00;5136548;27;40560;-86
2021/09/02 06:05:18;;;;;;;1.90;1.70;;;;;;;14.04;71.25;99890.56;5136391;27;41756;-86
2021/09/02 06:07:46;;;;;;;2.20;1.67;;;;;;;14.44;70.49;99912.16;5152523;27;43087;-86
2021/09/02 06:10:14;;;;;;;1.50;1.23;;;;;;;14.65;69.65;99906.34;5136890;27;39657;-86
2021/09/02 06:12:41;;;;;;;1.23;1.13;;;;;;;14.76;69.22;99886.16;5136453;27;40899;-86
2021/09/02 06:15:11;;;;;;;1.17;1.07;;;;;;;15.21;68.78;99909.88;5135639;27;41678;-86
2021/09/02 06:17:40;;;;;;;1.90;1.47;;;;;;;15.42;68.62;99905.81;5135598;27;41269;-86
2021/09/02 06:20:09;;;;;;;1.53;1.27;;;;;;;15.71;68.21;99919.06;5135858;27;39905;-86
2021/09/02 06:22:37;;;;;;;2.00;1.13;;;;;;;15.81;67.58;99912.19;5135961;27;41914;-86
2021/09/02 06:25:05;;;;;;;1.43;1.23;;;;;;;15.66;68.02;99899.84;5135779;27;41868;-87
2021/09/02 06:27:33;;;;;;;1.80;1.70;;;;;;;15.63;68.36;99900.91;5136291;27;41444;-86
2021/09/02 06:30:00;;;;;;;2.07;1.60;;;;;;;15.59;68.77;99898.53;5136688;27;39056;-86
2021/09/02 06:32:28;;;;;;;1.17;1.13;;;;;;;15.74;68.83;99916.22;5136068;27;40739;-86
2021/09/02 06:34:57;;;;;;;1.23;1.13;;;;;;;15.70;68.86;99896.03;5135719;27;41999;-85
2021/09/02 06:37:25;;;;;;;1.63;1.50;;;;;;;15.92;69.10;99904.31;5135715;27;42444;-86
2021/09/02 06:39:52;;;;;;;2.13;1.63;;;;;;;16.04;69.05;99908.81;5135904;27;38885;-85
2021/09/02 06:42:20;;;;;;;2.40;1.70;;;;;;;16.15;68.89;99916.94;5135476;27;41653;-86
2021/09/02 06:44:54;;;;;;;3.43;1.70;;;;;;;16.19;69.11;99914.94;5134629;27;42238;-87
2021/09/02 06:47:21;;;;;;;2.70;1.67;;;;;;;16.31;68.60;99918.56;5134782;27;41166;-87
2021/09/02 06:49:49;;;;;;;2.50;2.23;;;;;;;16.40;68.44;99912.56;5135662;27;38804;-86
2021/09/02 06:52:18;;;;;;;1.90;1.60;;;;;;;16.55;68.32;99916.00;5135219;27;40842;-86
2021/09/02 06:54:46;;;;;;;1.93;1.40;;;;;;;16.60;68.62;99905.81;5135439;27;42174;-86
2021/09/02 06:57:14;;;;;;;3.43;2.27;;;;;;;16.69;68.03;99898.03;5135401;27;41453;-86
2021/09/02 06:59:41;;;;;;;2.73;1.93;;;;;;;16.86;68.03;99908.38;5136203;27;39269;-86
2021/09/02 07:02:09;;;;;;;2.03;1.50;;;;;;;17.02;68.13;99905.47;5131284;27;41064;-87
2021/09/02 07:04:37;;;;;;;1.77;1.67;;;;;;;17.20;67.74;99903.25;5135083;27;42908;-86
2021/09/02 07:07:05;;;;;;;2.20;1.50;;;;;;;17.47;68.00;99906.59;5150380;27;41647;-87
2021/09/02 07:09:34;;;;;;;3.07;2.13;;;;;;;17.79;67.43;99911.41;5131441;27;39147;-85
2021/09/02 07:12:03;;;;;;;2.37;1.83;;;;;;;18.06;67.11;99911.13;5132892;27;40609;-85
2021/09/02 07:14:31;;;;;;;1.67;1.57;;;;;;;18.58;66.60;99918.69;5133693;27;43168;-85
2021/09/02 07:16:59;;;;;;;2.47;2.07;;;;;;;19.23;65.88;99920.63;5133821;27;41279;-86
2021/09/02 07:19:28;;;;;;;2.07;1.70;;;;;;;19.89;62.80;99916.06;5152517;27;39931;-87
2021/09/02 07:21:55;;;;;;;2.33;2.07;;;;;;;20.49;61.22;99930.69;5135211;27;41600;-85
2021/09/02 07:24:23;;;;;;;1.63;1.43;;;;;;;20.66;61.31;99916.59;5134632;27;42088;-87
2021/09/02 07:26:53;;;;;;;1.90;1.73;;;;;;;20.92;61.28;99942.09;5134484;27;41198;-86
2021/09/02 07:29:21;;;;;;;1.70;1.60;;;;;;;20.95;60.31;99944.53;5134385;27;38859;-84
2021/09/02 07:31:50;;;;;;;2.00;1.83;;;;;;;20.92;60.49;99928.63;5151082;27;41849;-85
2021/09/02 07:34:18;;;;;;;2.37;2.17;;;;;;;21.08;60.95;99939.75;5134916;27;41661;-85
2021/09/02 07:36:46;;;;;;;5.77;2.53;;;;;;;21.19;62.14;99924.50;5151601;27;41564;-86
2021/09/02 07:39:14;;;;;;;3.10;2.60;;;;;;;21.37;59.06;99942.59;5134479;27;38959;-88
2021/09/02 07:41:42;;;;;;;2.47;2.27;;;;;;;21.45;58.19;99933.78;5135706;27;40909;-85
2021/09/02 07:44:11;;;;;;;2.80;2.23;;;;;;;21.84;58.16;99937.41;5134949;27;43255;-87
2021/09/02 07:46:39;;;;;;;2.13;1.93;;;;;;;22.78;57.24;99955.53;5135140;27;41431;-87
2021/09/02 07:49:06;;;;;;;2.23;1.87;;;;;;;23.13;55.71;99949.41;5150773;27;39230;-88
2021/09/02 07:51:34;;;;;;;2.57;2.33;;;;;;;23.43;54.04;99944.72;5134955;27;40652;-87
2021/09/02 07:54:02;;;;;;;2.50;2.30;;;;;;;24.03;52.62;99959.41;5152039;27;41950;-84
2021/09/02 07:56:30;;;;;;;3.40;3.07;;;;;;;24.95;49.89;99978.81;5134679;27;41616;-86
2021/09/02 07:58:58;;;;;;;3.27;2.30;;;;;;;25.72;49.00;99977.78;5117628;27;39213;-85
2021/09/02 08:01:27;;;;;;;2.67;2.30;;;;;;;26.04;48.38;99966.16;5134067;27;40815;-86
2021/09/02 08:03:54;;;;;;;3.27;2.87;;;;;;;26.24;48.38;99965.84;5135045;27;42093;-86
2021/09/02 08:06:22;;;;;;;2.90;2.10;;;;;;;26.35;47.01;99970.97;5133638;27;41366;-87
2021/09/02 08:08:50;;;;;;;3.63;2.83;;;;;;;26.45;45.51;99991.53;5134579;27;38921;-86
2021/09/02 08:11:18;;;;;;;3.97;2.60;;;;;;;26.67;45.05;99970.09;5151602;27;41085;-88
2021/09/02 08:13:46;;;;;;;3.57;2.80;;;;;;;26.97;44.99;99984.84;5134078;27;41940;-91
2021/09/02 08:16:14;;;;;;;3.90;2.87;;;;;;;27.39;44.39;99976.41;5150672;27;42236;-86
2021/09/02 08:18:43;;;;;;;2.73;2.43;;;;;;;27.66;43.67;99975.13;5133966;27;39214;-85
2021/09/02 08:21:11;;;;;;;2.97;2.67;;;;;;;28.05;43.41;99980.50;5135110;27;40810;-89
2021/09/02 08:23:38;;;;;;;3.87;3.03;;;;;;;28.04;41.49;99990.53;5147196;27;42868;-87
2021/09/02 08:26:06;;;;;;;3.40;2.83;;;;;;;28.07;41.84;99962.91;5150502;27;43195;-85
2021/09/02 08:28:35;;;;;;;3.47;3.17;;;;;;;29.15;40.24;99993.53;5150815;27;39902;-89
2021/09/02 08:31:02;;;;;;;3.83;2.97;;;;;;;30.03;39.12;100000.78;5135070;27;41695;-86
2021/09/02 08:33:30;;;;;;;4.20;3.43;;;;;;;30.60;38.57;100013.56;5118668;27;41713;-86
2021/09/02 08:35:59;;;;;;;3.03;2.57;;;;;;;31.66;35.22;100028.88;5144102;27;41399;-87
2021/09/02 08:38:28;;;;;;;3.50;3.13;;;;;;;32.19;34.47;100038.16;5124783;27;39266;-89
2021/09/02 08:40:55;;;;;;;3.87;3.57;;;;;;;32.56;32.78;100046.88;5118451;27;41806;-92
2021/09/02 08:43:25;;;;;;;3.30;3.03;;;;;;;32.71;33.18;100047.53;5116173;27;41712;-85
2021/09/02 08:45:53;;;;;;;6.00;3.53;;;;;;;32.26;32.97;100050.00;5112988;27;41459;-84
2021/09/02 08:48:22;;;;;;;3.13;2.77;;;;;;;31.73;34.51;100038.81;5122084;27;39034;-88
2021/09/02 08:50:50;;;;;;;3.37;3.07;;;;;;;31.23;34.78;100047.34;5119753;27;41236;-89
2021/09/02 08:53:25;;;;;;;3.60;2.77;;;;;;;30.91;36.14;100022.22;5129317;27;41637;-82
2021/09/02 08:55:53;;;;;;;3.73;3.10;;;;;;;30.53;36.50;100019.00;5150646;27;42120;-82
2021/09/02 08:58:20;;;;;;;3.47;3.10;;;;;;;30.00;37.13;100018.41;5121932;27;40282;-78
2021/09/02 09:00:48;;;;;;;4.00;2.90;;;;;;;29.64;38.94;100001.97;5142667;27;42082;-81
2021/09/02 09:03:19;;;;;;;3.93;2.80;;;;;;;29.74;37.75;100006.28;5136474;27;43900;-80
2021/09/02 09:05:53;;;;;;;3.10;2.80;;;;;;;29.94;37.79;99980.91;5150853;27;43159;-86
2021/09/02 09:08:32;;;;;;;5.50;3.00;;;;;;;30.12;36.81;100005.09;5149449;27;38678;-89
2021/09/02 09:11:16;;;;;;;3.57;3.10;;;;;;;30.07;37.35;99985.69;5140107;27;41403;-88
2021/09/02 09:13:44;;;;;;;2.93;2.37;;;;;;;29.83;38.44;99978.66;5154091;27;42221;-89
2021/09/02 09:16:12;;;;;;;4.47;3.37;;;;;;;29.53;37.83;100002.47;5152941;27;42439;-90
2021/09/02 09:18:47;;;;;;;2.93;2.63;;;;;;;29.07;37.66;99993.59;5146709;27;40458;-88
2021/09/02 09:21:18;;;;;;;4.50;2.90;;;;;;;28.66;39.08;99978.66;5166338;27;42186;-87
2021/09/02 09:24:01;;;;;;;3.53;2.60;;;;;;;28.44;39.70;99980.38;5136710;27;41956;-87
2021/09/02 09:26:30;;;;;;;3.50;2.70;;;;;;;28.24;40.15;99975.44;5142874;27;42778;-86
2021/09/02 09:29:00;;;;;;;3.37;2.80;;;;;;;28.38;38.85;99970.22;5150425;27;38763;-90
2021/09/02 09:31:30;;;;;;;3.67;3.00;;;;;;;28.86;38.41;99969.78;5137028;27;41679;-89
2021/09/02 09:34:00;;;;;;;2.63;2.27;;;;;;;29.17;37.74;99996.06;5152684;27;43082;-91
2021/09/02 09:36:30;;;;;;;3.33;2.37;;;;;;;29.25;37.59;99971.41;5123497;27;41246;-88
2021/09/02 09:39:13;;;;;;;3.53;3.23;;;;;;;29.19;37.68;99974.88;5117939;27;40248;-90
2021/09/02 09:41:43;;;;;;;3.03;2.50;;;;;;;29.01;38.85;99975.25;5132689;27;40768;-90
2021/09/02 09:44:23;;;;;;;2.87;2.57;;;;;;;28.66;39.53;99967.75;5132417;27;43192;-89
2021/09/02 09:47:08;;;;;;;2.53;2.20;;;;;;;28.26;40.57;99966.22;5118264;27;41230;-90
2021/09/02 09:49:45;;;;;;;2.50;2.30;;;;;;;28.08;40.43;99963.75;5114985;27;39860;-90
2021/09/02 09:52:25;;;;;;;4.47;2.50;;;;;;;27.77;40.70;99939.31;5132027;27;41160;-90
2021/09/02 09:55:00;;;;;;;3.20;2.43;;;;;;;27.70;40.98;99952.78;5123348;27;41751;-90
2021/09/02 09:57:30;;;;;;;2.90;2.50;;;;;;;27.86;40.33;99947.25;5147196;27;42196;-90
2021/09/02 10:00:03;;;;;;;2.70;2.40;;;;;;;27.82;40.85;99953.22;5119379;27;40076;-89
2021/09/02 10:02:41;;;;;;;3.03;2.67;;;;;;;27.88;40.36;99961.53;5137159;27;42009;-88
2021/09/02 10:05:11;;;;;;;2.40;2.20;;;;;;;27.93;40.28;99961.00;5146288;27;42063;-92
2021/09/02 10:07:41;;;;;;;2.67;2.40;;;;;;;27.68;39.79;99945.84;5116669;27;42085;-89
2021/09/02 10:10:13;;;;;;;4.00;2.90;;;;;;;27.57;40.23;99948.97;5132470;27;39441;-89
2021/09/02 10:12:42;;;;;;;2.47;2.10;;;;;;;27.67;41.13;99945.00;5131028;27;41840;-89
2021/09/02 10:15:13;;;;;;;3.43;2.97;;;;;;;27.31;40.71;99916.59;5114483;27;42918;-89
2021/09/02 10:17:42;;;;;;;3.37;3.00;;;;;;;27.15;40.78;99955.56;5126995;27;41325;-89
2021/09/02 10:20:15;;;;;;;2.77;2.30;;;;;;;27.16;40.82;99946.41;5120580;27;38860;-91
2021/09/02 10:22:43;;;;;;;3.30;2.40;;;;;;;27.72;40.15;99947.16;5118942;27;41942;-89
2021/09/02 10:25:37;;;;;;;3.23;2.93;;;;;;;28.79;37.98;99968.84;5145437;27;43611;-90
2021/09/02 10:28:08;;;;;;;2.27;2.07;;;;;;;29.73;36.06;99949.97;5109598;27;41416;-90
2021/09/02 10:30:42;;;;;;;2.60;2.40;;;;;;;30.27;35.20;99964.03;5121492;27;40187;-90
2021/09/02 10:33:38;;;;;;;2.87;2.50;;;;;;;31.26;33.98;99979.38;5132104;27;40922;-91
2021/09/02 10:36:52;;;;;;;2.40;2.20;;;;;;;32.21;34.25;99970.28;5122509;27;43276;-91
2021/09/02 10:39:42;;;;;;;2.40;2.20;;;;;;;32.42;34.20;99967.34;5118485;27;42071;-87
2021/09/02 10:42:42;;;;;;;3.17;2.40;;;;;;;32.40;33.52;99950.25;5125809;27;39034;-90
2021/09/02 10:45:31;;;;;;;2.13;1.93;;;;;;;32.59;33.12;99966.91;5131966;27;41965;-87
2021/09/02 10:48:00;;;;;;;2.20;2.00;;;;;;;33.05;32.57;99978.72;5121259;27;42962;-88
2021/09/02 10:50:37;;;;;;;2.20;2.00;;;;;;;32.37;31.92;99967.13;5122292;27;43803;-89
2021/09/02 10:53:16;;;;;;;2.23;1.80;;;;;;;32.00;32.79;99967.69;5147897;27;38846;-90
2021/09/02 10:55:51;;;;;;;2.67;2.00;;;;;;;32.41;31.91;99965.63;5126630;27;41660;-87
2021/09/02 10:58:50;;;;;;;3.60;2.23;;;;;;;32.93;31.27;99966.72;5119915;27;42667;-88
2021/09/02 11:01:28;;;;;;;2.27;1.93;;;;;;;33.37;30.59;99966.00;5069097;28;42188;-88
2021/09/02 11:03:57;;;;;;;2.37;2.17;;;;;;;33.94;31.46;99960.69;5118608;27;39111;-86
2021/09/02 11:06:25;;;;;;;3.57;1.93;;;;;;;33.77;29.27;99963.09;5120048;27;40916;-86
2021/09/02 11:08:53;;;;;;;2.00;1.90;;;;;;;33.41;28.53;99972.72;5126319;27;41876;-89
2021/09/02 11:14:15;;;;;;;1.77;1.67;;;;;;;34.16;28.83;99970.28;5117522;27;39325;-89
2021/09/02 11:16:43;;;;;;;3.20;2.20;;;;;;;34.37;28.73;99916.84;5124916;27;41559;-89
2021/09/02 11:19:12;;;;;;;2.20;2.00;;;;;;;35.10;27.21;99967.41;5112416;27;41960;-89
2021/09/02 11:21:41;;;;;;;2.07;1.87;;;;;;;36.17;26.71;99962.25;5113524;27;42854;-89
2021/09/02 11:24:13;;;;;;;2.23;2.03;;;;;;;36.80;25.20;99945.13;5131199;27;40425;-90
2021/09/02 11:26:45;;;;;;;2.23;2.03;;;;;;;37.30;25.85;99951.84;5114676;27;40988;-88
2021/09/02 11:29:23;;;;;;;1.97;1.77;;;;;;;37.68;25.16;99969.78;5115335;27;42267;-89
2021/09/02 11:31:59;;;;;;;2.10;1.90;;;;;;;36.96;25.58;99966.50;5114527;27;41156;-89
2021/09/02 11:34:27;;;;;;;2.20;2.00;;;;;;;36.43;26.78;99972.91;5114101;27;38923;-90
2021/09/02 11:36:55;;;;;;;2.13;1.93;;;;;;;37.48;25.38;99961.88;5131792;27;42762;-87
2021/09/02 11:39:28;;;;;;;1.90;1.80;;;;;;;38.60;23.63;99956.59;5132515;27;41978;-88
2021/09/02 11:42:02;;;;;;;2.20;2.00;;;;;;;39.90;22.54;99980.09;5114857;27;41464;-88
2021/09/02 11:44:35;;;;;;;2.70;2.50;;;;;;;40.28;21.09;99994.91;5114234;27;39410;-89
2021/09/02 11:47:06;;;;;;;1.63;1.52;;;;;;;39.93;22.31;99982.34;5115537;27;41249;-90
2021/09/02 11:49:34;;;;;;;3.10;1.92;;;;;;;39.79;21.47;99976.34;5115296;27;41770;-88